Time;durP1;ratioP1;P1;durP2;ratioP2;P2;SDS_P1;SDS_P2;PMS_P1;PMS_P2;Temp;Humidity;BMP_temperature;BMP_pressure;BME280_temperature;BME280_humidity;BME280_pressure;Samples;Min_cycle;Max_cycle;Signal;HPM_P1;HPM_P2
2022/04/27 00:01:31;;;;;;;10.87;9.77;;;9.50;99.90;;;;;;10392505;28;20223;-69
2022/04/27 00:06:32;;;;;;;11.50;10.03;;;9.40;99.90;;;;;;10390696;28;20235;-68
2022/04/27 00:11:33;;;;;;;10.80;9.70;;;9.40;99.90;;;;;;10383192;28;20223;-69
2022/04/27 00:16:36;;;;;;;12.23;10.70;;;9.40;99.90;;;;;;10389662;28;20575;-68
2022/04/27 00:21:37;;;;;;;11.50;10.30;;;9.30;99.90;;;;;;10382466;28;20267;-68
2022/04/27 00:26:38;;;;;;;10.83;9.50;;;9.30;99.90;;;;;;10386071;28;20248;-69
2022/04/27 00:31:40;;;;;;;10.47;9.47;;;9.30;99.90;;;;;;10393887;28;20221;-69
2022/04/27 00:36:40;;;;;;;11.33;10.17;;;9.30;99.90;;;;;;10385757;28;20223;-68
2022/04/27 00:41:58;;;;;;;11.33;10.13;;;9.20;99.90;;;;;;10389655;28;20684;-69
2022/04/27 00:47:01;;;;;;;10.83;9.73;;;9.00;99.90;;;;;;10383537;28;20280;-69
2022/04/27 00:52:02;;;;;;;12.70;11.37;;;8.80;99.90;;;;;;10384125;28;20593;-69
2022/04/27 00:57:03;;;;;;;11.33;10.23;;;8.60;99.90;;;;;;10383264;28;20235;-69
2022/04/27 01:02:04;;;;;;;11.73;9.90;;;8.50;99.90;;;;;;10383679;28;20589;-68
2022/04/27 01:07:06;;;;;;;13.43;12.03;;;8.30;99.90;;;;;;10392942;28;20355;-68
2022/04/27 01:12:07;;;;;;;10.73;9.73;;;8.20;99.90;;;;;;10390062;28;20229;-68
2022/04/27 01:17:14;;;;;;;13.60;11.50;;;8.10;99.90;;;;;;10385731;28;20228;-69
2022/04/27 01:22:15;;;;;;;13.70;12.30;;;8.00;99.90;;;;;;10390835;28;20238;-70
2022/04/27 01:27:15;;;;;;;13.40;12.00;;;7.90;99.90;;;;;;10386175;28;20227;-70
2022/04/27 01:32:16;;;;;;;11.93;10.67;;;7.90;99.90;;;;;;10390085;28;20239;-69
2022/04/27 01:42:36;;;;;;;12.17;10.97;;;7.80;99.90;;;;;;10387396;28;20320;-70
2022/04/27 01:47:36;;;;;;;12.43;11.03;;;7.70;99.90;;;;;;10389045;28;20318;-71
2022/04/27 01:57:56;;;;;;;12.50;11.10;;;7.50;99.90;;;;;;10392117;28;20225;-69
2022/04/27 02:02:57;;;;;;;13.57;12.17;;;7.40;99.90;;;;;;10398297;28;20220;-68
2022/04/27 02:07:58;;;;;;;12.23;10.97;;;7.30;99.90;;;;;;10392388;28;20240;-70
2022/04/27 02:12:59;;;;;;;12.40;10.93;;;7.30;99.90;;;;;;10400025;28;20233;-69
2022/04/27 02:18:00;;;;;;;13.97;12.43;;;7.20;99.90;;;;;;10399243;28;20225;-69
2022/04/27 02:23:01;;;;;;;13.13;11.73;;;7.10;99.90;;;;;;10398217;28;20310;-69
2022/04/27 02:28:01;;;;;;;14.10;12.60;;;7.20;99.90;;;;;;10396576;28;20692;-69
2022/04/27 02:33:02;;;;;;;13.67;12.23;;;7.10;99.90;;;;;;10388998;28;20232;-67
2022/04/27 02:38:04;;;;;;;15.33;12.90;;;7.10;99.90;;;;;;10406036;28;20212;-69
2022/04/27 02:43:05;;;;;;;15.00;13.40;;;7.10;99.90;;;;;;10389332;28;20268;-69
2022/04/27 02:48:06;;;;;;;14.73;13.20;;;7.00;99.90;;;;;;10396747;28;20244;-68
2022/04/27 02:53:07;;;;;;;15.20;13.07;;;7.00;99.90;;;;;;10390329;28;20221;-68
2022/04/27 02:58:08;;;;;;;14.47;12.53;;;6.80;99.90;;;;;;10397609;28;20255;-68
2022/04/27 03:03:12;;;;;;;15.90;12.73;;;6.80;99.90;;;;;;10401555;28;20220;-69
2022/04/27 03:08:14;;;;;;;14.20;12.63;;;6.70;99.90;;;;;;10389775;28;20300;-69
2022/04/27 03:13:14;;;;;;;15.97;13.40;;;6.70;99.90;;;;;;10392484;28;20221;-68
2022/04/27 03:18:19;;;;;;;15.60;13.17;;;6.70;99.90;;;;;;10394984;28;20218;-69
2022/04/27 03:23:20;;;;;;;18.23;14.73;;;6.70;99.90;;;;;;10394607;28;20231;-68
2022/04/27 03:28:21;;;;;;;17.30;14.20;;;6.70;99.90;;;;;;10396298;28;20600;-70
2022/04/27 03:33:22;;;;;;;17.40;14.97;;;6.70;99.90;;;;;;10392211;28;20688;-69
2022/04/27 03:38:26;;;;;;;18.30;15.80;;;6.60;99.90;;;;;;10389422;28;20220;-69
2022/04/27 03:43:26;;;;;;;23.60;17.07;;;6.60;99.90;;;;;;10390221;28;20734;-68
2022/04/27 03:48:30;;;;;;;21.23;18.20;;;6.60;99.90;;;;;;10397529;28;20221;-69
2022/04/27 03:53:31;;;;;;;18.70;16.53;;;6.60;99.90;;;;;;10391014;28;20221;-70
2022/04/27 03:58:32;;;;;;;19.37;16.57;;;6.60;99.90;;;;;;10390552;28;20216;-69
2022/04/27 04:03:34;;;;;;;21.70;17.43;;;6.60;99.90;;;;;;10394039;28;20835;-69
2022/04/27 04:08:34;;;;;;;23.90;18.40;;;6.60;99.90;;;;;;10392104;28;20228;-68
2022/04/27 04:13:35;;;;;;;22.20;18.93;;;6.50;99.90;;;;;;10387922;28;20970;-68
2022/04/27 04:18:35;;;;;;;26.10;19.43;;;6.60;99.90;;;;;;10392088;28;20232;-69
2022/04/27 04:23:36;;;;;;;33.20;22.20;;;6.60;99.90;;;;;;10400503;28;20307;-68
2022/04/27 04:28:36;;;;;;;31.57;22.13;;;6.70;99.90;;;;;;10396020;28;20220;-67
2022/04/27 04:33:38;;;;;;;30.63;23.43;;;6.80;99.90;;;;;;10386049;28;20316;-69
2022/04/27 04:38:39;;;;;;;30.60;23.70;;;6.90;99.90;;;;;;10389633;28;20228;-68
2022/04/27 04:43:42;;;;;;;28.67;23.03;;;7.00;99.90;;;;;;10393360;28;20715;-68
2022/04/27 04:48:43;;;;;;;33.43;23.83;;;7.10;99.90;;;;;;10386379;28;20214;-68
2022/04/27 04:53:44;;;;;;;28.70;23.07;;;7.20;99.90;;;;;;10392723;28;20222;-69
2022/04/27 04:58:44;;;;;;;27.17;22.20;;;7.20;99.90;;;;;;10390975;28;20313;-68
2022/04/27 05:03:45;;;;;;;25.47;21.33;;;7.30;99.90;;;;;;10383297;28;20225;-68
2022/04/27 05:08:45;;;;;;;24.93;20.90;;;7.40;99.90;;;;;;10382766;28;20702;-68
2022/04/27 05:13:46;;;;;;;28.77;22.27;;;7.60;99.90;;;;;;10389856;28;20309;-67
2022/04/27 05:18:46;;;;;;;24.00;20.90;;;7.60;99.90;;;;;;10401427;28;20230;-68
2022/04/27 05:23:50;;;;;;;25.20;20.83;;;7.80;99.90;;;;;;10390041;28;20304;-68
2022/04/27 05:34:15;;;;;;;21.13;18.93;;;8.30;99.90;;;;;;10388349;28;20223;-67
2022/04/27 05:39:21;;;;;;;21.30;18.43;;;8.40;99.90;;;;;;10387158;28;20313;-68
2022/04/27 05:44:24;;;;;;;18.73;16.73;;;8.50;99.90;;;;;;10382286;28;20274;-68
2022/04/27 05:49:25;;;;;;;20.87;18.67;;;8.70;99.90;;;;;;10381141;28;20224;-68
2022/04/27 05:54:25;;;;;;;20.83;17.60;;;8.90;99.90;;;;;;10390132;28;20218;-69
2022/04/27 05:59:26;;;;;;;20.20;18.20;;;9.10;99.90;;;;;;10385629;28;20251;-68
2022/04/27 06:04:26;;;;;;;21.37;18.23;;;9.20;99.90;;;;;;10388615;28;20230;-68
2022/04/27 06:09:27;;;;;;;19.43;17.23;;;9.10;99.90;;;;;;10384959;28;20958;-66
2022/04/27 06:14:28;;;;;;;20.33;17.20;;;9.20;99.90;;;;;;10386023;28;20227;-68
2022/04/27 06:19:28;;;;;;;18.80;16.93;;;9.20;99.90;;;;;;10391544;28;20575;-68
2022/04/27 06:24:29;;;;;;;18.57;16.60;;;9.50;99.90;;;;;;10393306;28;20230;-69
2022/04/27 06:29:30;;;;;;;18.70;16.67;;;9.70;99.90;;;;;;10389672;28;20219;-69
2022/04/27 06:34:31;;;;;;;18.97;16.97;;;10.00;99.90;;;;;;10386366;28;20269;-69
2022/04/27 06:39:31;;;;;;;18.27;16.37;;;10.20;99.90;;;;;;10394020;28;20225;-67
2022/04/27 06:44:35;;;;;;;20.90;16.90;;;10.20;99.90;;;;;;10399201;28;20224;-68
2022/04/27 06:49:35;;;;;;;17.40;15.57;;;10.50;99.90;;;;;;10395470;28;20275;-68
2022/04/27 06:54:36;;;;;;;17.83;15.83;;;11.00;99.90;;;;;;10395290;28;20290;-69
2022/04/27 06:59:37;;;;;;;17.10;15.40;;;11.30;99.90;;;;;;10391216;28;20240;-68
2022/04/27 07:04:38;;;;;;;19.07;16.80;;;11.70;99.90;;;;;;10393688;28;20246;-68
2022/04/27 07:09:42;;;;;;;18.47;16.57;;;11.60;99.90;;;;;;10390251;28;20217;-68
2022/04/27 07:14:42;;;;;;;18.33;16.37;;;11.50;99.90;;;;;;10399264;28;20223;-68
2022/04/27 07:19:43;;;;;;;18.93;17.07;;;11.40;99.90;;;;;;10397694;28;20583;-69
2022/04/27 07:24:44;;;;;;;20.07;17.97;;;11.20;99.90;;;;;;10389862;28;20563;-70
2022/04/27 07:29:44;;;;;;;20.90;18.33;;;11.10;99.90;;;;;;10394211;28;20220;-68
2022/04/27 07:34:45;;;;;;;18.60;16.77;;;11.00;99.90;;;;;;10388559;28;20604;-68
2022/04/27 07:39:46;;;;;;;20.03;17.93;;;11.00;99.90;;;;;;10393366;28;20255;-68
2022/04/27 07:44:46;;;;;;;21.70;19.40;;;10.90;99.90;;;;;;10389147;28;20320;-68
2022/04/27 07:49:50;;;;;;;23.10;19.20;;;10.90;99.90;;;;;;10392840;28;20592;-68
2022/04/27 07:54:53;;;;;;;20.67;18.37;;;11.10;99.90;;;;;;10387819;28;20708;-69
2022/04/27 07:59:53;;;;;;;24.03;18.90;;;11.10;99.90;;;;;;10394852;28;20305;-69
2022/04/27 08:04:54;;;;;;;19.93;17.90;;;11.20;99.90;;;;;;10393376;28;20307;-68
2022/04/27 08:09:55;;;;;;;20.60;18.40;;;11.60;99.90;;;;;;10386054;28;20260;-69
2022/04/27 08:14:55;;;;;;;20.23;18.13;;;11.70;99.90;;;;;;10393165;28;20224;-68
2022/04/27 08:21:13;;;;;;;18.90;17.00;;;11.80;99.90;;;;;;10393744;28;20217;-68
2022/04/27 08:25:16;;;;;;;19.23;17.33;;;12.00;99.90;;;;;;10387835;28;20275;-68
2022/04/27 08:30:17;;;;;;;20.40;18.30;;;12.60;99.90;;;;;;10388735;28;20193;-68
2022/04/27 08:35:17;;;;;;;20.30;18.23;;;12.40;99.90;;;;;;10387278;28;20219;-68
2022/04/27 08:40:18;;;;;;;20.03;17.90;;;12.40;99.90;;;;;;10401960;28;20690;-68
2022/04/27 08:45:20;;;;;;;18.77;16.77;;;12.40;99.90;;;;;;10389260;28;20232;-68
2022/04/27 08:50:23;;;;;;;18.27;16.47;;;12.70;99.90;;;;;;10371675;28;20620;-68
2022/04/27 08:55:27;;;;;;;19.80;17.80;;;13.60;99.90;;;;;;10387432;28;20259;-68
2022/04/27 09:00:27;;;;;;;19.03;17.13;;;13.60;99.90;;;;;;10387454;28;20304;-69
2022/04/27 09:05:31;;;;;;;18.47;16.50;;;14.90;99.90;;;;;;10386264;28;20308;-68
2022/04/27 09:10:32;;;;;;;16.67;15.10;;;16.40;99.90;;;;;;10397825;28;20235;-68
2022/04/27 09:15:32;;;;;;;16.40;14.80;;;18.70;99.90;;;;;;10398976;28;20231;-69
2022/04/27 09:20:50;;;;;;;14.47;13.07;;;20.10;98.50;;;;;;10386312;28;20220;-69
2022/04/27 09:25:55;;;;;;;14.97;13.67;;;22.30;89.50;;;;;;10390718;28;20593;-69
2022/04/27 09:30:56;;;;;;;15.47;14.07;;;22.10;80.00;;;;;;10383528;28;20233;-70
2022/04/27 09:35:57;;;;;;;15.20;13.83;;;22.30;76.60;;;;;;10389810;28;20235;-69
2022/04/27 09:40:57;;;;;;;15.57;14.13;;;23.30;70.80;;;;;;10382356;28;20343;-68
2022/04/27 09:46:22;;;;;;;15.40;13.90;;;23.50;66.40;;;;;;10384335;28;20251;-69
2022/04/27 09:51:23;;;;;;;15.37;13.77;;;23.80;61.90;;;;;;10393702;28;20237;-68
2022/04/27 09:56:28;;;;;;;14.77;12.27;;;25.00;58.00;;;;;;10390639;28;20234;-70
2022/04/27 10:01:34;;;;;;;13.93;12.63;;;24.50;61.60;;;;;;10384257;28;20242;-70
2022/04/27 10:06:35;;;;;;;14.57;13.33;;;25.40;57.90;;;;;;10387355;28;20589;-70
2022/04/27 10:11:37;;;;;;;15.20;13.70;;;26.10;55.40;;;;;;10392755;28;20231;-69
2022/04/27 10:16:38;;;;;;;13.93;12.63;;;25.70;55.00;;;;;;10401988;28;20479;-69
2022/04/27 10:21:56;;;;;;;13.00;11.90;;;27.40;51.70;;;;;;10399375;28;20226;-69
2022/04/27 10:27:13;;;;;;;14.03;12.63;;;26.40;51.90;;;;;;10397042;28;20235;-70
2022/04/27 10:32:36;;;;;;;12.63;11.07;;;25.80;51.10;;;;;;10390559;28;20775;-68
2022/04/27 10:37:50;;;;;;;11.90;10.70;;;26.60;49.20;;;;;;10391131;28;20371;-69
2022/04/27 10:42:53;;;;;;;12.10;10.70;;;26.30;49.00;;;;;;10388312;28;20236;-69
2022/04/27 10:47:54;;;;;;;11.53;10.43;;;25.40;51.40;;;;;;10399031;28;20754;-69
2022/04/27 10:52:57;;;;;;;10.80;9.40;;;26.40;49.10;;;;;;10387868;28;20232;-69
2022/04/27 10:58:31;;;;;;;9.93;9.07;;;27.00;47.60;;;;;;10392658;28;20224;-70
2022/04/27 11:03:35;;;;;;;8.40;7.60;;;27.40;47.60;;;;;;10392321;28;20250;-70
2022/04/27 11:09:16;;;;;;;10.10;7.90;;;28.00;45.60;;;;;;10392566;28;20233;-69
2022/04/27 11:14:18;;;;;;;8.30;7.50;;;25.80;49.20;;;;;;10391333;28;20239;-69
2022/04/27 11:19:18;;;;;;;7.53;6.60;;;24.00;51.70;;;;;;10387320;28;20515;-69
2022/04/27 11:24:21;;;;;;;8.83;7.93;;;22.60;56.50;;;;;;10390670;28;20773;-69
2022/04/27 11:29:25;;;;;;;7.13;5.40;;;21.90;59.20;;;;;;10394653;28;20221;-70
2022/04/27 11:34:28;;;;;;;7.07;5.73;;;21.00;58.90;;;;;;10390188;28;20236;-69
2022/04/27 11:39:28;;;;;;;5.63;5.10;;;20.00;60.20;;;;;;10390864;28;20259;-69
2022/04/27 11:44:30;;;;;;;6.40;5.80;;;19.50;62.40;;;;;;10391700;28;20218;-68
2022/04/27 11:49:30;;;;;;;6.10;5.60;;;18.90;67.80;;;;;;10389862;28;20656;-68
2022/04/27 11:54:34;;;;;;;6.00;5.40;;;18.90;68.00;;;;;;10390393;28;20228;-69
2022/04/27 11:59:46;;;;;;;4.53;3.73;;;19.40;65.70;;;;;;10396097;28;20284;-68
2022/04/27 12:04:47;;;;;;;6.33;4.03;;;19.20;60.60;;;;;;10392951;28;20231;-68
2022/04/27 12:10:02;;;;;;;4.47;4.07;;;18.80;62.90;;;;;;10385273;28;20226;-68
2022/04/27 12:15:14;;;;;;;4.00;3.53;;;19.10;64.00;;;;;;10385214;28;20226;-69
2022/04/27 12:20:39;;;;;;;3.50;3.20;;;19.40;59.10;;;;;;10395487;28;20220;-70
2022/04/27 12:25:59;;;;;;;4.27;3.80;;;19.40;59.80;;;;;;10394393;28;20229;-68
2022/04/27 12:31:03;;;;;;;3.63;3.33;;;19.20;58.10;;;;;;10392254;28;20219;-68
2022/04/27 12:41:29;;;;;;;5.20;3.17;;;19.20;58.60;;;;;;10384528;28;20283;-69
2022/04/27 12:46:33;;;;;;;3.73;3.30;;;19.30;58.30;;;;;;10392967;28;20297;-68
2022/04/27 12:51:35;;;;;;;3.10;2.73;;;19.30;58.90;;;;;;10386968;28;20227;-69
2022/04/27 12:56:36;;;;;;;3.43;3.00;;;19.30;54.20;;;;;;10396229;28;20229;-69
2022/04/27 13:01:38;;;;;;;6.23;3.43;;;19.30;54.40;;;;;;10384713;28;20715;-68
2022/04/27 13:06:38;;;;;;;3.47;3.00;;;19.30;54.40;;;;;;10397947;28;20728;-68
2022/04/27 13:11:57;;;;;;;3.67;2.90;;;19.90;54.50;;;;;;10390050;28;20226;-68
2022/04/27 13:16:58;;;;;;;3.37;3.00;;;19.50;55.80;;;;;;10384573;28;20217;-69
2022/04/27 13:21:58;;;;;;;4.00;3.60;;;18.90;57.20;;;;;;10382641;28;20229;-69
2022/04/27 13:26:59;;;;;;;3.30;3.00;;;18.70;59.60;;;;;;10382793;28;20218;-68
2022/04/27 13:31:59;;;;;;;5.53;3.73;;;18.60;59.90;;;;;;10390890;28;20564;-69
2022/04/27 13:37:00;;;;;;;4.40;3.23;;;18.50;61.30;;;;;;10391311;28;20229;-68
2022/04/27 13:42:01;;;;;;;3.70;3.40;;;18.50;62.80;;;;;;10381925;28;20237;-68
2022/04/27 13:47:02;;;;;;;4.00;3.30;;;18.70;61.80;;;;;;10408233;28;20258;-70
2022/04/27 13:52:04;;;;;;;3.87;3.57;;;19.20;59.00;;;;;;10398352;28;20791;-69
2022/04/27 13:57:05;;;;;;;3.73;3.20;;;19.50;57.40;;;;;;10405402;28;20681;-68
2022/04/27 14:02:07;;;;;;;5.40;3.40;;;19.60;58.90;;;;;;10404122;28;20334;-68
2022/04/27 14:07:08;;;;;;;3.50;3.20;;;19.60;58.30;;;;;;10404390;28;20250;-68
2022/04/27 14:22:50;;;;;;;4.00;3.60;;;18.80;60.00;;;;;;10395860;28;20222;-68
2022/04/27 14:27:52;;;;;;;6.77;3.50;;;18.90;60.00;;;;;;10400915;28;20234;-68
2022/04/27 14:32:52;;;;;;;5.83;3.57;;;18.90;59.40;;;;;;10402371;28;20239;-68
2022/04/27 14:37:53;;;;;;;3.77;3.40;;;19.00;62.20;;;;;;10396337;28;20693;-69
2022/04/27 14:42:53;;;;;;;4.03;3.60;;;19.00;60.90;;;;;;10409604;28;20313;-68
2022/04/27 14:47:55;;;;;;;5.03;3.30;;;19.10;59.70;;;;;;10395101;28;20690;-67
2022/04/27 14:52:56;;;;;;;4.53;3.27;;;19.10;59.90;;;;;;10402101;28;20321;-68
2022/04/27 14:57:57;;;;;;;5.37;3.37;;;19.00;59.60;;;;;;10386815;28;20308;-69
2022/04/27 15:02:58;;;;;;;5.57;3.40;;;19.00;60.10;;;;;;10395202;28;20237;-69
2022/04/27 15:07:58;;;;;;;4.57;3.43;;;18.90;59.60;;;;;;10395547;28;20251;-68
2022/04/27 15:12:59;;;;;;;3.80;3.37;;;18.60;61.60;;;;;;10395756;28;20384;-69
2022/04/27 15:17:59;;;;;;;3.77;3.23;;;18.50;64.30;;;;;;10387953;28;20222;-70
2022/04/27 15:23:00;;;;;;;4.27;3.27;;;18.50;63.10;;;;;;10396630;28;20241;-68
2022/04/27 15:28:00;;;;;;;4.17;2.83;;;18.90;63.00;;;;;;10388163;28;20227;-68
2022/04/27 15:33:02;;;;;;;4.33;3.10;;;19.20;61.00;;;;;;10391601;28;20217;-69
2022/04/27 15:38:03;;;;;;;3.53;3.20;;;19.00;61.20;;;;;;10393812;28;20594;-69
2022/04/27 15:43:09;;;;;;;4.23;3.40;;;19.00;60.90;;;;;;10387985;28;20239;-69
2022/04/27 15:48:09;;;;;;;3.77;2.70;;;19.20;60.80;;;;;;10387596;28;20258;-69
2022/04/27 15:53:13;;;;;;;3.63;2.83;;;19.30;60.00;;;;;;10392019;28;20229;-69
2022/04/27 15:58:14;;;;;;;4.10;2.80;;;19.10;59.80;;;;;;10389430;28;20228;-68
2022/04/27 16:03:14;;;;;;;3.67;2.83;;;19.10;58.70;;;;;;10393320;28;20594;-69
2022/04/27 16:08:16;;;;;;;3.00;2.60;;;18.90;59.00;;;;;;10390864;28;20310;-68
2022/04/27 16:13:16;;;;;;;2.83;2.20;;;18.80;59.60;;;;;;10386810;28;20228;-69
2022/04/27 16:18:18;;;;;;;3.90;2.80;;;18.80;59.20;;;;;;10391798;28;20223;-69
2022/04/27 16:23:18;;;;;;;3.07;2.60;;;18.50;59.60;;;;;;10383861;28;20244;-69
2022/04/27 16:28:19;;;;;;;3.77;2.63;;;18.20;59.60;;;;;;10397756;28;20692;-69
2022/04/27 16:33:23;;;;;;;5.73;2.33;;;18.00;60.60;;;;;;10385255;28;20230;-69
2022/04/27 16:38:23;;;;;;;2.90;2.20;;;17.90;59.00;;;;;;10395807;28;20209;-68
2022/04/27 16:43:24;;;;;;;3.73;2.60;;;17.80;58.70;;;;;;10399349;28;20654;-69
2022/04/27 16:48:25;;;;;;;2.53;2.33;;;17.70;58.70;;;;;;10391768;28;20770;-69
2022/04/27 16:53:30;;;;;;;4.93;2.37;;;17.40;59.80;;;;;;10394515;28;20719;-69
2022/04/27 16:58:31;;;;;;;3.80;2.67;;;17.20;60.40;;;;;;10395103;28;20670;-68
2022/04/27 17:03:32;;;;;;;4.73;2.10;;;16.90;61.90;;;;;;10382997;28;20220;-68
2022/04/27 17:08:40;;;;;;;3.63;2.00;;;16.80;63.50;;;;;;10394605;28;20221;-69
2022/04/27 17:13:41;;;;;;;3.53;2.50;;;16.60;64.40;;;;;;10388513;28;20296;-69
2022/04/27 17:18:43;;;;;;;5.77;2.47;;;16.50;65.50;;;;;;10390696;28;20220;-68
2022/04/27 17:23:44;;;;;;;3.27;2.43;;;16.50;65.60;;;;;;10389816;28;20605;-68
2022/04/27 17:28:44;;;;;;;4.67;2.33;;;16.40;66.80;;;;;;10385226;28;20236;-68
2022/04/27 17:33:46;;;;;;;4.23;2.50;;;16.30;66.60;;;;;;10386804;28;20604;-68
2022/04/27 17:38:47;;;;;;;3.97;2.70;;;16.30;66.00;;;;;;10384003;28;20707;-67
2022/04/27 17:43:48;;;;;;;3.57;2.37;;;16.20;66.60;;;;;;10389666;28;20229;-69
2022/04/27 17:48:50;;;;;;;3.90;2.70;;;16.10;67.00;;;;;;10388689;28;20256;-67
2022/04/27 17:53:51;;;;;;;3.40;2.90;;;15.90;67.70;;;;;;10390116;28;20692;-68
2022/04/27 17:58:51;;;;;;;2.50;2.30;;;15.80;69.60;;;;;;10388841;28;20219;-68
2022/04/27 18:04:01;;;;;;;9.80;2.63;;;15.70;70.10;;;;;;10380296;28;20303;-68
2022/04/27 18:09:01;;;;;;;2.70;2.50;;;15.50;71.20;;;;;;10389224;28;20381;-68
2022/04/27 18:14:02;;;;;;;4.23;2.90;;;15.40;71.80;;;;;;10381767;28;20243;-69
2022/04/27 18:19:03;;;;;;;3.77;2.67;;;15.20;73.70;;;;;;10389184;28;20224;-68
2022/04/27 18:24:07;;;;;;;2.60;2.40;;;15.00;74.90;;;;;;10380859;28;20224;-69
2022/04/27 18:29:10;;;;;;;2.93;2.70;;;14.70;76.80;;;;;;10381223;28;20224;-68
2022/04/27 18:34:17;;;;;;;5.17;2.50;;;14.40;78.90;;;;;;10387278;28;20230;-68
2022/04/27 18:39:24;;;;;;;4.40;2.83;;;14.20;83.40;;;;;;10402585;28;20219;-68
2022/04/27 18:50:00;;;;;;;4.47;3.30;;;13.70;86.70;;;;;;10390474;28;20209;-68
2022/04/27 18:55:02;;;;;;;3.70;3.40;;;13.50;87.10;;;;;;10388194;28;20231;-69
2022/04/27 19:00:10;;;;;;;4.90;3.20;;;13.40;89.40;;;;;;10401163;28;20311;-69
2022/04/27 19:05:10;;;;;;;5.37;3.53;;;13.20;91.00;;;;;;10391218;28;20883;-68
2022/04/27 19:10:14;;;;;;;3.80;3.50;;;13.10;92.70;;;;;;10394440;28;20189;-69
2022/04/27 19:15:14;;;;;;;5.50;4.23;;;12.90;92.90;;;;;;10398162;28;20205;-69
2022/04/27 19:20:15;;;;;;;5.77;4.10;;;12.80;95.90;;;;;;10392715;28;20180;-68
2022/04/27 19:25:17;;;;;;;4.27;3.73;;;12.70;99.90;;;;;;10388735;28;20567;-69
2022/04/27 19:30:19;;;;;;;5.27;4.50;;;12.60;99.90;;;;;;10393305;28;20192;-69
2022/04/27 19:35:22;;;;;;;7.60;4.90;;;12.50;99.90;;;;;;10393800;28;20636;-69
2022/04/27 19:40:23;;;;;;;6.83;5.10;;;12.30;99.90;;;;;;10399044;28;20201;-70
2022/04/27 19:45:23;;;;;;;5.13;4.50;;;12.20;99.90;;;;;;10388853;28;20227;-70
2022/04/27 19:50:25;;;;;;;6.93;4.97;;;12.20;99.90;;;;;;10392188;28;20212;-68
2022/04/27 19:55:27;;;;;;;6.93;5.30;;;12.10;99.90;;;;;;10390234;28;20238;-68
2022/04/27 20:00:28;;;;;;;6.80;5.00;;;12.00;99.90;;;;;;10390852;28;20313;-69
2022/04/27 20:05:32;;;;;;;7.93;5.40;;;12.00;99.90;;;;;;10389458;28;20970;-69
2022/04/27 20:10:34;;;;;;;6.60;4.90;;;11.90;99.90;;;;;;10389561;28;20287;-69
2022/04/27 20:15:35;;;;;;;6.30;5.40;;;11.80;99.90;;;;;;10387773;28;20237;-69
2022/04/27 20:20:36;;;;;;;7.87;6.37;;;11.70;99.90;;;;;;10388609;28;20723;-69
2022/04/27 20:25:37;;;;;;;7.10;5.70;;;11.60;99.90;;;;;;10395725;28;20220;-69
2022/04/27 20:30:39;;;;;;;6.67;5.43;;;11.60;99.90;;;;;;10392734;28;20745;-69
2022/04/27 20:35:41;;;;;;;6.40;5.10;;;11.50;99.90;;;;;;10389096;28;20224;-68
2022/04/27 20:40:42;;;;;;;8.10;5.37;;;11.50;99.90;;;;;;10396804;28;20228;-68
2022/04/27 20:45:43;;;;;;;7.10;5.13;;;11.50;99.90;;;;;;10386331;28;20697;-69
2022/04/27 20:50:44;;;;;;;5.33;4.53;;;11.40;99.90;;;;;;10383324;28;20221;-69
2022/04/27 20:55:44;;;;;;;6.53;5.07;;;11.40;99.90;;;;;;10390092;28;20240;-70
2022/04/27 21:00:45;;;;;;;6.53;5.10;;;11.30;99.90;;;;;;10386331;28;20240;-70
2022/04/27 21:05:47;;;;;;;5.30;4.47;;;11.30;99.90;;;;;;10391164;28;20962;-69
2022/04/27 21:10:48;;;;;;;5.00;4.50;;;11.30;99.90;;;;;;10385485;28;20913;-70
2022/04/27 21:15:49;;;;;;;5.27;4.17;;;11.20;99.90;;;;;;10393988;28;20229;-70
2022/04/27 21:20:50;;;;;;;5.07;4.33;;;11.20;99.90;;;;;;10389604;28;20575;-68
2022/04/27 21:25:51;;;;;;;6.87;4.43;;;11.10;99.90;;;;;;10384935;28;20722;-69
2022/04/27 21:30:52;;;;;;;7.40;4.23;;;11.10;99.90;;;;;;10385072;28;20221;-69
2022/04/27 21:35:52;;;;;;;7.53;4.57;;;11.10;99.90;;;;;;10400901;28;20232;-69
2022/04/27 21:40:53;;;;;;;4.53;4.10;;;11.10;99.90;;;;;;10391013;28;20235;-69
2022/04/27 21:45:54;;;;;;;7.00;4.57;;;11.10;99.90;;;;;;10383537;28;20221;-70
2022/04/27 21:50:55;;;;;;;6.50;4.80;;;11.00;99.90;;;;;;10390140;28;20652;-68
2022/04/27 21:55:56;;;;;;;6.60;4.83;;;11.00;99.90;;;;;;10383618;28;20229;-70
2022/04/27 22:01:06;;;;;;;4.57;4.10;;;10.90;99.90;;;;;;10389198;28;20220;-69
2022/04/27 22:06:06;;;;;;;6.13;5.03;;;10.80;99.90;;;;;;10395877;28;20456;-69
2022/04/27 22:11:13;;;;;;;7.30;4.87;;;10.80;99.90;;;;;;10390526;28;20732;-69
2022/04/27 22:16:13;;;;;;;5.33;4.20;;;10.70;99.90;;;;;;10405473;28;20220;-68
2022/04/27 22:21:15;;;;;;;4.90;4.00;;;10.70;99.90;;;;;;10399116;28;20215;-69
2022/04/27 22:26:16;;;;;;;5.20;4.17;;;10.60;99.90;;;;;;10395890;28;20220;-70
2022/04/27 22:31:23;;;;;;;4.63;3.90;;;10.50;99.90;;;;;;10400995;28;20220;-69
2022/04/27 22:36:24;;;;;;;5.37;4.00;;;10.40;99.90;;;;;;10398094;28;20229;-69
2022/04/27 22:41:25;;;;;;;6.93;4.20;;;10.30;99.90;;;;;;10397291;28;20242;-69
2022/04/27 22:46:26;;;;;;;5.07;4.23;;;10.30;99.90;;;;;;10392606;28;20224;-70
2022/04/27 22:51:27;;;;;;;7.07;4.13;;;10.20;99.90;;;;;;10401404;28;20277;-69
2022/04/27 22:56:28;;;;;;;4.40;4.00;;;10.10;99.90;;;;;;10396774;28;20765;-69
2022/04/27 23:01:29;;;;;;;5.30;4.00;;;10.10;99.90;;;;;;10393359;28;20223;-69
2022/04/27 23:06:29;;;;;;;4.13;3.57;;;10.10;99.90;;;;;;10389246;28;20226;-69
2022/04/27 23:11:33;;;;;;;4.13;3.73;;;9.90;99.90;;;;;;10397157;28;20553;-69
2022/04/27 23:16:35;;;;;;;4.37;3.70;;;9.90;99.90;;;;;;10395348;28;20320;-69
2022/04/27 23:21:38;;;;;;;5.67;3.90;;;9.80;99.90;;;;;;10395651;28;20235;-69
2022/04/27 23:26:39;;;;;;;4.33;3.93;;;9.70;99.90;;;;;;10390960;28;20315;-70
2022/04/27 23:31:39;;;;;;;4.40;4.00;;;9.70;99.90;;;;;;10393406;28;20318;-69
2022/04/27 23:36:40;;;;;;;4.53;4.07;;;9.70;99.90;;;;;;10391008;28;20223;-69
2022/04/27 23:41:41;;;;;;;4.93;4.07;;;9.60;99.90;;;;;;10392960;28;20721;-69
2022/04/27 23:46:42;;;;;;;5.03;4.13;;;9.60;99.90;;;;;;10390296;28;20217;-69
2022/04/27 23:51:43;;;;;;;5.07;4.57;;;9.50;99.90;;;;;;10386786;28;20212;-69
2022/04/27 23:56:43;;;;;;;7.57;5.43;;;9.50;99.90;;;;;;10392533;28;20220;-68
